Adaven, Nevada
Current Conditions -  °F | °C
As of 6:56 AM on Tuesday 21 Oct 2014 (Local Time) from KTPH Reporting Station
Clear Clear  
Wind Chill:   Ceiling: Unl
Heat Index:   Visibility: 10mi
Dew Point: -6°   Wind: 6mph
Humidity: 40%   Direction: 330°NNW
Pressure: 30.02"   Gusts: NA
Location:  38.13°N, 115.6°W
Report Text: KTPH 211356Z AUTO 33005KT 10SM CLR 07/M06 A3002 RMK AO2 SLP127 T00721056
Loading
Personal Weather Stations






























Interactive Weather Map
Tropical Storm Tracking
New forecast layout! Learn more

10-Day Weather Forecast

Advertisements
Track Severe Weather on mobile